createdAt,value
2019-01-25T00:01:15.615Z,61.83
2019-01-25T00:05:20.318Z,56.63
2019-01-25T00:09:25.010Z,58.77
2019-01-25T00:13:29.710Z,64.83
2019-01-25T00:17:34.396Z,63.13
2019-01-25T00:21:39.086Z,62.77
2019-01-25T00:25:43.786Z,55.67
2019-01-25T00:29:48.483Z,47.43
2019-01-25T00:33:53.182Z,54.30
2019-01-25T00:37:57.870Z,55.87
2019-01-25T00:42:02.566Z,49.10
2019-01-25T00:46:07.260Z,48.23
2019-01-25T00:50:19.889Z,50.00
2019-01-25T00:54:24.588Z,55.60
2019-01-25T00:58:29.272Z,55.13
2019-01-25T01:02:33.970Z,50.33
2019-01-25T01:06:38.668Z,53.40
2019-01-25T01:10:43.372Z,50.30
2019-01-25T01:14:48.055Z,57.00
2019-01-25T01:18:52.748Z,54.10
2019-01-25T01:22:57.451Z,62.13
2019-01-25T01:27:02.153Z,59.40
2019-01-25T01:31:06.851Z,53.33
2019-01-25T01:35:11.540Z,57.83
2019-01-25T01:39:16.239Z,58.83
2019-01-25T01:43:20.938Z,57.93
2019-01-25T01:47:25.633Z,58.33
2019-01-25T01:51:30.330Z,62.03
2019-01-25T01:55:35.022Z,59.77
2019-01-25T01:59:39.724Z,65.17
2019-01-25T02:03:44.419Z,63.47
2019-01-25T02:07:49.120Z,64.97
2019-01-25T02:11:53.820Z,55.57
2019-01-25T02:15:58.509Z,48.67
2019-01-25T02:20:04.282Z,58.97
2019-01-25T02:24:08.986Z,55.53
2019-01-25T02:28:13.680Z,60.03
2019-01-25T02:32:18.560Z,53.77
2019-01-25T02:36:23.260Z,52.67
2019-01-25T02:40:27.954Z,56.00
2019-01-25T02:44:32.651Z,55.37
2019-01-25T02:48:37.344Z,58.07
2019-01-25T02:52:42.046Z,55.67
2019-01-25T02:56:46.732Z,51.33
2019-01-25T03:00:51.430Z,51.80
2019-01-25T03:04:56.129Z,57.70
2019-01-25T03:09:00.821Z,53.63
2019-01-25T03:13:06.580Z,60.27
2019-01-25T03:17:11.279Z,51.87
2019-01-25T03:21:15.977Z,50.60
2019-01-25T03:25:22.815Z,63.50
2019-01-25T03:29:27.510Z,57.60
2019-01-25T03:33:32.238Z,53.57
2019-01-25T03:37:36.896Z,54.50
2019-01-25T03:41:41.592Z,56.90
2019-01-25T03:45:46.298Z,56.57
2019-01-25T03:49:51.002Z,51.70
2019-01-25T03:53:55.690Z,53.70
2019-01-25T03:58:00.392Z,61.13
2019-01-25T04:02:05.871Z,60.63
2019-01-25T04:06:10.574Z,59.10
2019-01-25T04:10:23.716Z,59.53
2019-01-25T04:14:28.397Z,60.17
2019-01-25T04:18:34.066Z,58.63
2019-01-25T04:22:38.766Z,55.60
2019-01-25T04:26:43.461Z,53.77
2019-01-25T04:30:48.162Z,53.27
2019-01-25T04:34:52.854Z,55.03
2019-01-25T04:38:57.553Z,53.40
2019-01-25T04:43:02.262Z,57.27
2019-01-25T04:47:06.954Z,50.93
2019-01-25T04:51:11.644Z,58.90
2019-01-25T04:55:18.779Z,57.27
2019-01-25T04:59:26.572Z,57.07
2019-01-25T05:03:31.445Z,57.33
2019-01-25T05:07:36.147Z,53.27
2019-01-25T05:11:40.838Z,73.80
2019-01-25T05:15:45.540Z,60.57
2019-01-25T05:19:50.233Z,59.20
2019-01-25T05:23:54.932Z,54.83
2019-01-25T05:28:14.093Z,47.17
2019-01-25T05:32:18.763Z,59.57
2019-01-25T05:36:23.461Z,55.40
2019-01-25T05:40:28.152Z,55.63
2019-01-25T05:44:32.856Z,58.03
2019-01-25T05:48:37.568Z,63.47
2019-01-25T05:52:43.298Z,61.90
2019-01-25T05:56:48.007Z,54.00
2019-01-25T06:00:52.692Z,51.90
2019-01-25T06:04:57.398Z,53.73
2019-01-25T06:09:02.097Z,47.00
2019-01-25T06:13:07.870Z,46.03
2019-01-25T06:17:12.599Z,44.67
2019-01-25T06:21:17.302Z,49.83
2019-01-25T06:25:22.014Z,48.47
2019-01-25T06:29:28.981Z,50.63
2019-01-25T06:33:33.667Z,51.67
2019-01-25T06:37:38.373Z,47.70
2019-01-25T06:41:44.192Z,47.87
2019-01-25T06:45:50.670Z,54.90
2019-01-25T06:49:55.365Z,51.57
2019-01-25T06:54:00.057Z,58.43
2019-01-25T06:58:12.725Z,48.47
2019-01-25T07:02:17.423Z,63.13
2019-01-25T07:06:22.116Z,67.80
2019-01-25T07:10:26.828Z,56.33
2019-01-25T07:14:31.505Z,47.90
2019-01-25T07:18:36.206Z,47.97
2019-01-25T07:22:40.911Z,42.77
2019-01-25T07:26:45.616Z,43.77
2019-01-25T07:30:50.334Z,44.87
2019-01-25T07:34:55.014Z,46.90
2019-01-25T07:38:59.716Z,47.30
2019-01-25T07:43:04.413Z,48.20
2019-01-25T07:47:09.115Z,53.57
2019-01-25T07:51:13.833Z,56.33
2019-01-25T07:55:18.533Z,45.93
2019-01-25T07:59:23.248Z,52.83
2019-01-25T08:03:27.909Z,46.67
2019-01-25T08:07:32.625Z,47.10
2019-01-25T08:11:37.312Z,43.77
2019-01-25T08:15:42.014Z,47.33
2019-01-25T08:19:46.765Z,48.07
2019-01-25T08:23:51.405Z,55.07
2019-01-25T08:27:56.111Z,56.93
2019-01-25T08:32:00.844Z,54.00
2019-01-25T08:36:05.563Z,57.90
2019-01-25T08:40:14.788Z,58.70
2019-01-25T08:44:19.482Z,55.80
2019-01-25T08:48:25.251Z,60.20
2019-01-25T08:52:29.956Z,51.63
2019-01-25T08:56:34.823Z,56.13
2019-01-25T09:00:39.622Z,56.67
2019-01-25T09:04:44.309Z,61.73
2019-01-25T09:08:49.002Z,60.97
2019-01-25T09:12:53.683Z,59.47
2019-01-25T09:16:58.375Z,64.00
2019-01-25T09:21:03.068Z,61.83
2019-01-25T09:25:08.894Z,60.57
2019-01-25T09:29:14.653Z,64.63
2019-01-25T09:33:19.335Z,61.23
2019-01-25T09:37:24.034Z,63.07
2019-01-25T09:41:28.733Z,63.70
2019-01-25T09:45:33.419Z,65.03
2019-01-25T09:49:38.116Z,69.37
2019-01-25T09:53:42.793Z,66.63
2019-01-25T09:57:47.733Z,64.33
2019-01-25T10:01:52.422Z,61.20
2019-01-25T10:05:57.116Z,68.47
2019-01-25T10:10:01.796Z,68.60
2019-01-25T10:14:06.491Z,67.03
2019-01-25T10:18:11.186Z,71.27
2019-01-25T10:22:15.880Z,69.67
2019-01-25T10:26:20.572Z,61.37
2019-01-25T10:30:26.901Z,71.03
2019-01-25T10:34:31.601Z,66.47
2019-01-25T10:38:36.307Z,67.10
2019-01-25T10:42:45.638Z,70.20
2019-01-25T10:46:47.394Z,62.57
2019-01-25T10:50:52.090Z,69.77
2019-01-25T10:54:56.775Z,78.40
2019-01-25T10:59:01.473Z,67.83
2019-01-25T11:03:06.164Z,74.77
2019-01-25T11:07:10.882Z,81.93
2019-01-25T11:11:15.569Z,76.97
2019-01-25T11:15:22.392Z,71.97
2019-01-25T11:19:28.054Z,76.93
2019-01-25T11:23:32.751Z,77.50
2019-01-25T11:27:37.441Z,75.13
2019-01-25T11:31:42.129Z,68.57
2019-01-25T11:35:46.823Z,73.07
2019-01-25T11:39:51.519Z,74.17
2019-01-25T11:43:56.217Z,64.17
2019-01-25T11:48:00.913Z,66.73
2019-01-25T11:52:05.603Z,70.23
2019-01-25T11:56:10.291Z,62.20
2019-01-25T12:00:23.271Z,70.13
2019-01-25T12:04:27.964Z,70.20
2019-01-25T12:08:32.663Z,81.77
2019-01-25T12:12:37.370Z,79.30
2019-01-25T12:16:42.048Z,90.93
2019-01-25T12:20:46.807Z,84.60
2019-01-25T12:24:51.453Z,84.53
2019-01-25T12:28:56.151Z,76.67
2019-01-25T12:33:00.838Z,86.10
2019-01-25T12:37:05.525Z,77.23
2019-01-25T12:41:10.221Z,80.70
2019-01-25T12:45:24.318Z,76.40
2019-01-25T12:49:29.014Z,85.17
2019-01-25T12:53:34.086Z,78.23
2019-01-25T12:57:38.766Z,71.57
2019-01-25T13:01:43.466Z,48.87
2019-01-25T13:05:48.233Z,39.13
2019-01-25T13:09:52.922Z,35.53
2019-01-25T13:13:57.881Z,45.10
2019-01-25T13:18:02.563Z,41.60
2019-01-25T13:22:07.263Z,38.83
2019-01-25T13:26:11.955Z,31.43
2019-01-25T13:30:28.820Z,34.80
2019-01-25T13:34:33.523Z,33.97
2019-01-25T13:38:38.193Z,36.30
2019-01-25T13:42:42.888Z,36.03
2019-01-25T13:46:47.588Z,36.00
2019-01-25T13:50:52.606Z,44.00
2019-01-25T13:54:57.297Z,54.90
2019-01-25T13:59:01.994Z,59.30
2019-01-25T14:03:06.691Z,56.87
2019-01-25T14:07:11.389Z,52.27
2019-01-25T14:11:16.087Z,46.30
2019-01-25T14:15:20.768Z,46.57
2019-01-25T14:19:25.527Z,48.60
2019-01-25T14:23:30.158Z,49.17
2019-01-25T14:27:34.852Z,49.60
2019-01-25T14:31:39.539Z,48.93
2019-01-25T14:35:44.228Z,45.43
2019-01-25T14:39:48.919Z,47.17
2019-01-25T14:43:54.696Z,43.20
2019-01-25T14:48:00.503Z,45.93
2019-01-25T14:52:05.737Z,75.47
2019-01-25T14:56:10.438Z,75.00
2019-01-25T15:00:15.760Z,73.23
2019-01-25T15:04:20.453Z,78.10
2019-01-25T15:08:25.141Z,76.60
2019-01-25T15:12:29.841Z,82.03
2019-01-25T15:16:34.518Z,76.33
2019-01-25T15:20:39.208Z,70.60
2019-01-25T15:24:43.927Z,70.23
2019-01-25T15:28:49.476Z,78.60
2019-01-25T15:32:54.179Z,77.27
2019-01-25T15:36:58.873Z,80.97
2019-01-25T15:41:03.564Z,81.77
2019-01-25T15:45:11.196Z,83.43
2019-01-25T15:49:15.902Z,81.47
2019-01-25T15:53:20.595Z,80.33
2019-01-25T15:57:25.288Z,88.20
2019-01-25T16:01:29.971Z,89.13
2019-01-25T16:05:34.662Z,89.97
2019-01-25T16:09:39.357Z,78.23
2019-01-25T16:13:45.922Z,82.83
2019-01-25T16:17:50.614Z,77.73
2019-01-25T16:21:55.313Z,85.07
2019-01-25T16:26:00.011Z,77.07
2019-01-25T16:30:13.828Z,74.90
2019-01-25T16:34:18.525Z,75.17
2019-01-25T16:38:23.221Z,71.70
2019-01-25T16:42:27.899Z,76.80
2019-01-25T16:46:32.599Z,62.27
2019-01-25T16:50:37.292Z,71.97
2019-01-25T16:54:41.989Z,61.37
2019-01-25T16:58:46.676Z,64.60
2019-01-25T17:02:51.360Z,58.67
2019-01-25T17:06:56.053Z,60.77
2019-01-25T17:11:00.745Z,48.07
2019-01-25T17:15:08.987Z,41.43
2019-01-25T17:19:13.674Z,37.07
2019-01-25T17:23:18.364Z,41.13
2019-01-25T17:27:23.056Z,38.23
2019-01-25T17:31:27.749Z,28.50
2019-01-25T17:35:32.786Z,31.73
2019-01-25T17:39:37.468Z,32.30
2019-01-25T17:43:42.161Z,35.23
2019-01-25T17:47:46.852Z,35.37
2019-01-25T17:51:51.555Z,34.93
2019-01-25T17:55:56.231Z,37.53
2019-01-25T18:00:01.983Z,35.30
2019-01-25T18:04:06.674Z,33.63
2019-01-25T18:08:11.367Z,33.37
2019-01-25T18:12:16.123Z,35.87
2019-01-25T18:16:20.823Z,38.97
2019-01-25T18:20:25.513Z,41.60
2019-01-25T18:24:30.200Z,40.03
2019-01-25T18:28:39.209Z,35.37
2019-01-25T18:32:43.904Z,35.80
2019-01-25T18:36:48.595Z,36.90
2019-01-25T18:40:53.289Z,38.83
2019-01-25T18:44:57.973Z,31.83
2019-01-25T18:49:02.707Z,43.97
2019-01-25T18:53:07.397Z,38.60
2019-01-25T18:57:12.096Z,51.43
2019-01-25T19:01:16.798Z,34.00
2019-01-25T19:05:21.481Z,33.23
2019-01-25T19:09:26.176Z,46.97
2019-01-25T19:13:30.873Z,40.83
2019-01-25T19:17:35.565Z,34.27
2019-01-25T19:21:41.218Z,42.77
2019-01-25T19:25:45.906Z,39.17
2019-01-25T19:29:50.595Z,42.13
2019-01-25T19:33:55.289Z,41.93
2019-01-25T19:37:59.980Z,45.13
2019-01-25T19:42:04.667Z,47.87
2019-01-25T19:46:09.355Z,47.00
2019-01-25T19:50:16.754Z,52.33
2019-01-25T19:54:21.443Z,53.17
2019-01-25T19:58:27.145Z,51.23
2019-01-25T20:02:31.915Z,47.33
2019-01-25T20:06:36.611Z,50.77
2019-01-25T20:10:41.302Z,55.70
2019-01-25T20:14:45.993Z,50.67
2019-01-25T20:18:50.681Z,45.53
2019-01-25T20:22:55.364Z,50.47
2019-01-25T20:27:00.060Z,47.70
2019-01-25T20:31:04.760Z,40.70
2019-01-25T20:35:12.402Z,46.60
2019-01-25T20:39:17.094Z,45.30
2019-01-25T20:43:21.782Z,44.57
2019-01-25T20:47:26.475Z,39.27
2019-01-25T20:51:31.167Z,46.10
2019-01-25T20:55:35.865Z,38.90
2019-01-25T20:59:40.548Z,37.17
2019-01-25T21:03:45.236Z,33.97
2019-01-25T21:07:49.929Z,32.53
2019-01-25T21:11:54.626Z,35.30
2019-01-25T21:15:59.315Z,35.63
2019-01-25T21:20:06.901Z,35.47
2019-01-25T21:24:11.666Z,30.87
2019-01-25T21:28:16.360Z,29.43
2019-01-25T21:32:21.040Z,25.23
2019-01-25T21:36:25.722Z,28.33
2019-01-25T21:40:32.154Z,27.50
2019-01-25T21:44:36.844Z,28.77
2019-01-25T21:48:41.545Z,25.00
2019-01-25T21:52:46.228Z,30.33
2019-01-25T21:56:50.916Z,28.40
2019-01-25T22:00:55.610Z,25.73
2019-01-25T22:05:00.296Z,26.47
2019-01-25T22:09:06.736Z,23.70
2019-01-25T22:13:11.435Z,25.53
2019-01-25T22:17:16.289Z,22.03
2019-01-25T22:21:20.980Z,23.93
2019-01-25T22:25:25.669Z,22.67
2019-01-25T22:29:30.351Z,16.57
2019-01-25T22:33:35.035Z,17.03
2019-01-25T22:37:39.711Z,15.70
2019-01-25T22:41:44.403Z,15.77
2019-01-25T22:45:49.090Z,18.93
2019-01-25T22:49:53.763Z,15.73
2019-01-25T22:53:58.582Z,13.90
2019-01-25T22:58:03.205Z,12.27
2019-01-25T23:02:07.887Z,11.70
2019-01-25T23:06:35.212Z,13.70
2019-01-25T23:10:39.891Z,8.97
2019-01-25T23:14:44.569Z,9.03
2019-01-25T23:18:49.233Z,10.40
2019-01-25T23:22:53.920Z,22.60
2019-01-25T23:26:58.612Z,11.00
2019-01-25T23:31:04.268Z,12.47
2019-01-25T23:35:08.947Z,10.50
2019-01-25T23:39:13.624Z,10.50
2019-01-25T23:43:18.323Z,11.43
2019-01-25T23:47:22.998Z,10.37
2019-01-25T23:51:27.678Z,8.57
2019-01-25T23:55:32.374Z,13.47
2019-01-25T23:59:38.015Z,12.13
